createdAt,value
2023-05-10T00:01:55.445Z,21.39
2023-05-10T00:04:42.478Z,21.37
2023-05-10T00:07:29.148Z,21.34
2023-05-10T00:10:16.181Z,21.32
2023-05-10T00:13:03.163Z,21.30
2023-05-10T00:15:49.922Z,21.28
2023-05-10T00:18:36.608Z,21.25
2023-05-10T00:21:23.351Z,21.22
2023-05-10T00:24:10.088Z,21.21
2023-05-10T00:26:56.785Z,21.18
2023-05-10T00:29:43.446Z,21.15
2023-05-10T00:32:30.224Z,21.13
2023-05-10T00:35:17.048Z,21.11
2023-05-10T00:38:03.732Z,21.08
2023-05-10T00:40:50.847Z,21.04
2023-05-10T00:43:37.515Z,21.04
2023-05-10T00:46:24.287Z,21.00
2023-05-10T00:49:11.006Z,20.99
2023-05-10T00:51:58.067Z,20.97
2023-05-10T00:54:44.791Z,20.93
2023-05-10T00:57:31.489Z,20.90
2023-05-10T01:00:19.246Z,20.88
2023-05-10T01:03:06.059Z,20.86
2023-05-10T01:05:52.832Z,20.83
2023-05-10T01:08:39.826Z,20.81
2023-05-10T01:11:26.749Z,20.78
2023-05-10T01:14:13.538Z,20.76
2023-05-10T01:17:00.231Z,20.74
2023-05-10T01:19:47.068Z,20.72
2023-05-10T01:22:46.023Z,20.70
2023-05-10T01:25:51.630Z,20.68
2023-05-10T01:28:56.101Z,20.65
2023-05-10T01:31:57.006Z,20.64
2023-05-10T01:34:46.033Z,20.61
2023-05-10T01:37:52.984Z,20.58
2023-05-10T01:40:59.942Z,20.56
2023-05-10T01:43:52.868Z,20.53
2023-05-10T01:46:39.944Z,20.52
2023-05-10T01:49:28.155Z,20.50
2023-05-10T01:52:15.340Z,20.48
2023-05-10T01:55:03.413Z,20.46
2023-05-10T01:57:52.424Z,20.44
2023-05-10T02:00:41.023Z,20.42
2023-05-10T02:03:28.234Z,20.39
2023-05-10T02:06:15.406Z,20.37
2023-05-10T02:09:02.403Z,20.35
2023-05-10T02:11:49.330Z,20.35
2023-05-10T02:14:37.188Z,20.33
2023-05-10T02:17:24.174Z,20.30
2023-05-10T02:20:11.333Z,20.28
2023-05-10T02:22:58.231Z,20.27
2023-05-10T02:25:45.036Z,20.25
2023-05-10T02:28:31.773Z,20.23
2023-05-10T02:31:18.644Z,20.22
2023-05-10T02:34:05.339Z,20.20
2023-05-10T02:36:52.053Z,20.18
2023-05-10T02:39:39.448Z,20.16
2023-05-10T02:42:27.230Z,20.15
2023-05-10T02:45:14.632Z,20.13
2023-05-10T02:48:01.598Z,20.10
2023-05-10T02:50:52.208Z,20.08
2023-05-10T02:53:39.687Z,20.08
2023-05-10T02:56:26.862Z,20.05
2023-05-10T02:59:13.621Z,20.03
2023-05-10T03:02:01.341Z,20.00
2023-05-10T03:04:48.214Z,19.99
2023-05-10T03:07:34.934Z,19.98
2023-05-10T03:10:22.977Z,19.93
2023-05-10T03:13:27.512Z,19.91
2023-05-10T03:16:16.526Z,19.90
2023-05-10T03:19:08.019Z,19.88
2023-05-10T03:21:55.298Z,19.86
2023-05-10T03:24:42.216Z,19.84
2023-05-10T03:27:28.971Z,19.81
2023-05-10T03:30:16.022Z,19.81
2023-05-10T03:33:08.828Z,19.79
2023-05-10T03:35:55.586Z,19.77
2023-05-10T03:38:42.366Z,19.73
2023-05-10T03:41:29.585Z,19.71
2023-05-10T03:44:16.268Z,19.69
2023-05-10T03:47:03.100Z,19.67
2023-05-10T03:49:49.891Z,19.66
2023-05-10T03:52:36.686Z,19.64
2023-05-10T03:55:23.657Z,19.62
2023-05-10T03:58:13.272Z,19.58
2023-05-10T04:00:59.946Z,19.57
2023-05-10T04:03:46.815Z,19.55
2023-05-10T04:06:33.974Z,19.54
2023-05-10T04:09:20.839Z,19.51
2023-05-10T04:12:10.110Z,19.50
2023-05-10T04:14:58.305Z,19.47
2023-05-10T04:17:45.365Z,19.46
2023-05-10T04:20:33.297Z,19.43
2023-05-10T04:23:20.003Z,19.41
2023-05-10T04:26:06.731Z,19.40
2023-05-10T04:28:53.426Z,19.38
2023-05-10T04:31:40.269Z,19.36
2023-05-10T04:34:26.976Z,19.35
2023-05-10T04:37:13.673Z,19.32
2023-05-10T04:40:01.135Z,19.30
2023-05-10T04:42:47.838Z,19.30
2023-05-10T04:45:34.584Z,19.28
2023-05-10T04:48:21.470Z,19.24
2023-05-10T04:51:08.202Z,19.22
2023-05-10T04:54:05.195Z,19.20
2023-05-10T04:56:53.052Z,19.18
2023-05-10T04:59:39.974Z,19.16
2023-05-10T05:02:26.739Z,19.13
2023-05-10T05:05:13.682Z,19.12
2023-05-10T05:08:00.378Z,19.10
2023-05-10T05:10:47.106Z,19.08
2023-05-10T05:13:33.868Z,19.07
2023-05-10T05:16:20.614Z,19.06
2023-05-10T05:19:07.327Z,19.04
2023-05-10T05:21:54.286Z,19.00
2023-05-10T05:24:41.010Z,18.98
2023-05-10T05:27:28.823Z,18.95
2023-05-10T05:30:15.870Z,18.92
2023-05-10T05:33:02.871Z,18.91
2023-05-10T05:35:51.773Z,18.84
2023-05-10T05:38:38.530Z,18.76
2023-05-10T05:41:25.599Z,18.69
2023-05-10T05:44:12.322Z,18.70
2023-05-10T05:46:59.022Z,18.74
2023-05-10T05:49:48.393Z,18.76
2023-05-10T05:52:35.061Z,18.78
2023-05-10T05:55:22.310Z,18.76
2023-05-10T05:58:08.975Z,18.74
2023-05-10T06:00:55.678Z,18.70
2023-05-10T06:03:42.550Z,18.69
2023-05-10T06:06:29.342Z,18.65
2023-05-10T06:09:16.104Z,18.62
2023-05-10T06:12:02.784Z,18.59
2023-05-10T06:14:49.516Z,18.57
2023-05-10T06:17:36.256Z,18.54
2023-05-10T06:20:22.958Z,18.52
2023-05-10T06:23:09.651Z,18.50
2023-05-10T06:25:56.303Z,18.47
2023-05-10T06:28:43.180Z,18.45
2023-05-10T06:31:29.896Z,18.42
2023-05-10T06:34:16.559Z,18.42
2023-05-10T06:37:04.551Z,18.41
2023-05-10T06:39:51.249Z,18.40
2023-05-10T06:42:38.023Z,18.39
2023-05-10T06:45:24.760Z,18.39
2023-05-10T06:48:11.586Z,18.36
2023-05-10T06:50:58.321Z,18.35
2023-05-10T06:53:44.999Z,18.33
2023-05-10T06:56:32.041Z,18.32
2023-05-10T06:59:20.206Z,18.31
2023-05-10T07:02:07.258Z,18.27
2023-05-10T07:04:54.264Z,18.27
2023-05-10T07:07:41.282Z,18.25
2023-05-10T07:10:27.986Z,18.24
2023-05-10T07:13:14.818Z,18.23
2023-05-10T07:16:02.984Z,18.20
2023-05-10T07:18:51.360Z,18.20
2023-05-10T07:21:38.439Z,18.19
2023-05-10T07:24:25.341Z,18.17
2023-05-10T07:27:12.018Z,18.17
2023-05-10T07:29:59.639Z,18.16
2023-05-10T07:32:46.384Z,18.16
2023-05-10T07:35:33.207Z,18.14
2023-05-10T07:38:19.900Z,18.13
2023-05-10T07:41:06.798Z,18.12
2023-05-10T07:43:53.506Z,18.11
2023-05-10T07:46:40.355Z,18.12
2023-05-10T07:49:27.113Z,18.11
2023-05-10T07:52:14.664Z,18.12
2023-05-10T07:55:01.439Z,18.12
2023-05-10T07:57:48.540Z,18.11
2023-05-10T08:00:35.361Z,18.10
2023-05-10T08:03:22.126Z,18.11
2023-05-10T08:06:08.823Z,18.11
2023-05-10T08:08:55.695Z,18.12
2023-05-10T08:11:42.461Z,18.13
2023-05-10T08:14:29.724Z,18.15
2023-05-10T08:17:17.688Z,18.16
2023-05-10T08:20:05.734Z,18.17
2023-05-10T08:22:52.405Z,18.17
2023-05-10T08:25:39.107Z,18.19
2023-05-10T08:28:25.802Z,18.20
2023-05-10T08:31:13.204Z,18.20
2023-05-10T08:33:59.954Z,18.22
2023-05-10T08:36:46.652Z,18.22
2023-05-10T08:39:36.385Z,18.23
2023-05-10T08:42:23.166Z,18.23
2023-05-10T08:45:10.310Z,18.25
2023-05-10T08:47:57.097Z,18.27
2023-05-10T08:50:46.757Z,18.29
2023-05-10T08:53:34.200Z,18.31
2023-05-10T08:56:21.301Z,18.32
2023-05-10T08:59:08.118Z,18.33
2023-05-10T09:01:55.037Z,18.34
2023-05-10T09:04:42.083Z,18.34
2023-05-10T09:07:28.862Z,18.34
2023-05-10T09:10:15.651Z,18.32
2023-05-10T09:13:02.389Z,18.32
2023-05-10T09:15:49.079Z,18.33
2023-05-10T09:18:35.798Z,18.33
2023-05-10T09:21:22.565Z,18.33
2023-05-10T09:24:09.339Z,18.32
2023-05-10T09:26:56.149Z,18.33
2023-05-10T09:29:43.438Z,18.33
2023-05-10T09:32:39.490Z,18.34
2023-05-10T09:35:29.438Z,18.34
2023-05-10T09:38:16.928Z,18.35
2023-05-10T09:41:03.640Z,18.34
2023-05-10T09:43:50.600Z,18.34
2023-05-10T09:46:37.963Z,18.35
2023-05-10T09:49:24.766Z,18.36
2023-05-10T09:52:11.688Z,18.36
2023-05-10T09:54:58.438Z,18.35
2023-05-10T09:57:45.178Z,18.35
2023-05-10T10:00:35.760Z,18.35
2023-05-10T10:03:22.478Z,18.35
2023-05-10T10:06:18.915Z,18.37
2023-05-10T10:09:13.639Z,18.38
2023-05-10T10:12:01.058Z,18.39
2023-05-10T10:14:48.912Z,18.39
2023-05-10T10:17:36.634Z,18.41
2023-05-10T10:20:23.742Z,18.43
2023-05-10T10:23:10.677Z,18.44
2023-05-10T10:25:57.591Z,18.46
2023-05-10T10:28:50.178Z,18.49
2023-05-10T10:31:57.186Z,18.51
2023-05-10T10:34:43.954Z,18.54
2023-05-10T10:37:57.481Z,18.57
2023-05-10T10:40:44.173Z,18.60
2023-05-10T10:43:31.305Z,18.63
2023-05-10T10:46:18.898Z,18.67
2023-05-10T10:49:11.879Z,18.70
2023-05-10T10:52:14.171Z,18.75
2023-05-10T10:55:09.245Z,18.79
2023-05-10T10:58:01.639Z,18.84
2023-05-10T11:00:48.703Z,18.88
2023-05-10T11:03:35.439Z,18.91
2023-05-10T11:06:35.345Z,18.96
2023-05-10T11:09:22.167Z,18.99
2023-05-10T11:12:09.394Z,19.04
2023-05-10T11:14:57.934Z,19.07
2023-05-10T11:17:44.744Z,19.10
2023-05-10T11:20:39.345Z,19.13
2023-05-10T11:23:30.629Z,19.15
2023-05-10T11:26:17.396Z,19.18
2023-05-10T11:29:05.876Z,19.21
2023-05-10T11:31:52.758Z,19.22
2023-05-10T11:34:39.508Z,19.24
2023-05-10T11:37:29.144Z,19.24
2023-05-10T11:40:16.020Z,19.24
2023-05-10T11:43:03.620Z,19.26
2023-05-10T11:45:50.364Z,19.28
2023-05-10T11:48:37.285Z,19.27
2023-05-10T11:51:24.469Z,19.17
2023-05-10T11:54:11.924Z,19.03
2023-05-10T11:56:58.653Z,18.74
2023-05-10T11:59:45.357Z,18.55
2023-05-10T12:02:32.257Z,18.42
2023-05-10T12:05:19.054Z,18.47
2023-05-10T12:08:15.303Z,18.60
2023-05-10T12:11:05.744Z,18.73
2023-05-10T12:13:52.694Z,18.85
2023-05-10T12:16:39.490Z,18.93
2023-05-10T12:19:26.181Z,19.02
2023-05-10T12:22:12.875Z,19.08
2023-05-10T12:24:59.612Z,19.13
2023-05-10T12:27:56.659Z,19.17
2023-05-10T12:30:43.388Z,19.21
2023-05-10T12:33:43.777Z,19.24
2023-05-10T12:36:30.679Z,19.27
2023-05-10T12:39:17.458Z,19.30
2023-05-10T12:42:04.217Z,19.33
2023-05-10T12:44:51.010Z,19.33
2023-05-10T12:47:38.412Z,19.36
2023-05-10T12:50:25.708Z,19.37
2023-05-10T12:53:12.730Z,19.39
2023-05-10T12:55:59.513Z,19.39
2023-05-10T12:58:49.332Z,19.41
2023-05-10T13:01:36.261Z,19.42
2023-05-10T13:04:23.075Z,19.43
2023-05-10T13:07:10.443Z,19.43
2023-05-10T13:09:57.192Z,19.43
2023-05-10T13:12:43.916Z,19.44
2023-05-10T13:15:32.814Z,19.45
2023-05-10T13:18:19.609Z,19.46
2023-05-10T13:21:06.744Z,19.46
2023-05-10T13:23:53.850Z,19.48
2023-05-10T13:26:41.181Z,19.50
2023-05-10T13:29:27.890Z,19.51
2023-05-10T13:32:14.620Z,19.51
2023-05-10T13:35:01.368Z,19.52
2023-05-10T13:37:48.125Z,19.51
2023-05-10T13:40:35.065Z,19.53
2023-05-10T13:43:21.771Z,19.55
2023-05-10T13:46:08.548Z,19.57
2023-05-10T13:48:57.903Z,19.57
2023-05-10T13:51:44.702Z,19.58
2023-05-10T13:54:32.583Z,19.60
2023-05-10T13:57:19.475Z,19.61
2023-05-10T14:00:06.921Z,19.61
2023-05-10T14:02:53.744Z,19.61
2023-05-10T14:05:40.746Z,19.64
2023-05-10T14:08:28.083Z,19.65
2023-05-10T14:11:14.914Z,19.64
2023-05-10T14:14:01.647Z,19.65
2023-05-10T14:16:48.438Z,19.67
2023-05-10T14:19:35.303Z,19.70
2023-05-10T14:22:22.168Z,19.69
2023-05-10T14:25:08.961Z,19.71
2023-05-10T14:27:55.787Z,19.71
2023-05-10T14:30:42.945Z,19.72
2023-05-10T14:33:29.742Z,19.73
2023-05-10T14:36:16.802Z,19.74
2023-05-10T14:39:03.907Z,19.73
2023-05-10T14:41:52.330Z,19.73
2023-05-10T14:44:39.123Z,19.73
2023-05-10T14:47:25.855Z,19.74
2023-05-10T14:50:18.923Z,19.75
2023-05-10T14:53:19.008Z,19.74
2023-05-10T14:56:06.028Z,19.74
2023-05-10T14:58:52.752Z,19.74
2023-05-10T15:01:42.243Z,19.74
2023-05-10T15:04:29.613Z,19.74
2023-05-10T15:07:18.400Z,19.75
2023-05-10T15:10:05.583Z,19.76
2023-05-10T15:12:52.397Z,19.75
2023-05-10T15:15:39.148Z,19.75
2023-05-10T15:18:25.923Z,19.73
2023-05-10T15:21:12.736Z,19.70
2023-05-10T15:23:59.437Z,19.69
2023-05-10T15:26:46.393Z,19.67
2023-05-10T15:29:33.490Z,19.67
2023-05-10T15:32:20.247Z,19.66
2023-05-10T15:35:08.509Z,19.66
2023-05-10T15:37:55.184Z,19.65
2023-05-10T15:40:41.965Z,19.64
2023-05-10T15:43:28.824Z,19.63
2023-05-10T15:46:15.736Z,19.64
2023-05-10T15:49:02.537Z,19.67
2023-05-10T15:51:49.418Z,19.69
2023-05-10T15:54:39.322Z,19.70
2023-05-10T15:57:26.112Z,19.71
2023-05-10T16:00:13.364Z,19.72
2023-05-10T16:03:00.289Z,19.70
2023-05-10T16:05:47.097Z,19.69
2023-05-10T16:08:33.980Z,19.69
2023-05-10T16:11:21.508Z,19.69
2023-05-10T16:14:08.305Z,19.69
2023-05-10T16:16:55.106Z,19.69
2023-05-10T16:19:41.912Z,19.70
2023-05-10T16:22:29.057Z,19.70
2023-05-10T16:25:15.954Z,19.67
2023-05-10T16:28:03.098Z,19.68
2023-05-10T16:30:49.857Z,19.67
2023-05-10T16:33:37.280Z,19.66
2023-05-10T16:36:24.297Z,19.65
2023-05-10T16:39:12.641Z,19.65
2023-05-10T16:41:59.711Z,19.63
2023-05-10T16:44:46.475Z,19.60
2023-05-10T16:47:33.650Z,19.60
2023-05-10T16:50:20.638Z,19.57
2023-05-10T16:53:07.439Z,19.56
2023-05-10T16:55:54.182Z,19.56
2023-05-10T16:58:40.860Z,19.54
2023-05-10T17:01:27.640Z,19.51
2023-05-10T17:04:14.406Z,19.52
2023-05-10T17:07:01.120Z,19.51
2023-05-10T17:09:47.862Z,19.49
2023-05-10T17:12:34.827Z,19.48
2023-05-10T17:15:21.738Z,19.47
2023-05-10T17:18:10.321Z,19.45
2023-05-10T17:20:57.393Z,19.44
2023-05-10T17:23:44.180Z,19.43
2023-05-10T17:26:30.916Z,19.42
2023-05-10T17:29:17.597Z,19.40
2023-05-10T17:32:04.451Z,19.38
2023-05-10T17:34:51.644Z,19.37
2023-05-10T17:37:38.325Z,19.37
2023-05-10T17:40:24.989Z,19.34
2023-05-10T17:43:11.708Z,19.35
2023-05-10T17:45:58.390Z,19.33
2023-05-10T17:48:47.228Z,19.32
2023-05-10T17:51:34.053Z,19.28
2023-05-10T17:54:20.757Z,19.26
2023-05-10T17:57:07.829Z,19.26
2023-05-10T17:59:54.493Z,19.24
2023-05-10T18:02:41.216Z,19.23
2023-05-10T18:05:28.341Z,19.21
2023-05-10T18:08:15.646Z,19.17
2023-05-10T18:11:02.418Z,19.14
2023-05-10T18:13:49.198Z,19.11
2023-05-10T18:16:36.035Z,19.08
2023-05-10T18:19:24.925Z,19.06
2023-05-10T18:22:11.714Z,19.02
2023-05-10T18:24:58.713Z,19.00
2023-05-10T18:27:45.435Z,18.96
2023-05-10T18:30:32.410Z,18.93
2023-05-10T18:33:19.163Z,18.90
2023-05-10T18:36:05.833Z,18.88
2023-05-10T18:38:52.540Z,18.85
2023-05-10T18:41:39.307Z,18.83
2023-05-10T18:44:26.989Z,18.81
2023-05-10T18:47:13.674Z,18.78
2023-05-10T18:50:00.584Z,18.75
2023-05-10T18:52:47.449Z,18.73
2023-05-10T18:55:34.214Z,18.71
2023-05-10T18:58:20.911Z,18.70
2023-05-10T19:01:08.894Z,18.68
2023-05-10T19:03:55.618Z,18.67
2023-05-10T19:06:42.333Z,18.64
2023-05-10T19:09:29.007Z,18.61
2023-05-10T19:12:15.780Z,18.60
2023-05-10T19:15:02.592Z,18.59
2023-05-10T19:17:50.292Z,18.58
2023-05-10T19:20:38.516Z,18.55
2023-05-10T19:23:29.127Z,18.52
2023-05-10T19:26:15.941Z,18.51
2023-05-10T19:29:04.102Z,18.49
2023-05-10T19:31:52.408Z,18.48
2023-05-10T19:34:39.273Z,18.45
2023-05-10T19:37:26.192Z,18.45
2023-05-10T19:40:14.913Z,18.42
2023-05-10T19:43:01.950Z,18.40
2023-05-10T19:45:48.703Z,18.39
2023-05-10T19:48:35.443Z,18.38
2023-05-10T19:51:22.293Z,18.35
2023-05-10T19:54:08.958Z,18.34
2023-05-10T19:56:55.699Z,18.32
2023-05-10T19:59:42.843Z,18.30
2023-05-10T20:02:29.960Z,18.27
2023-05-10T20:05:17.058Z,18.27
2023-05-10T20:08:03.980Z,18.24
2023-05-10T20:10:50.751Z,18.22
2023-05-10T20:13:37.661Z,18.21
2023-05-10T20:16:26.582Z,18.19
2023-05-10T20:19:13.852Z,18.18
2023-05-10T20:22:00.794Z,18.16
2023-05-10T20:24:48.149Z,18.15
2023-05-10T20:27:34.804Z,18.13
2023-05-10T20:30:21.554Z,18.12
2023-05-10T20:33:09.340Z,18.09
2023-05-10T20:35:56.121Z,18.08
2023-05-10T20:38:42.868Z,18.06
2023-05-10T20:41:29.626Z,18.06
2023-05-10T20:44:16.367Z,18.03
2023-05-10T20:47:03.093Z,18.02
2023-05-10T20:49:49.882Z,18.00
2023-05-10T20:52:36.603Z,17.99
2023-05-10T20:55:23.326Z,17.97
2023-05-10T20:58:10.429Z,17.95
2023-05-10T21:00:57.089Z,17.94
2023-05-10T21:03:43.830Z,17.92
2023-05-10T21:06:32.028Z,17.91
2023-05-10T21:09:18.830Z,17.89
2023-05-10T21:12:05.641Z,17.88
2023-05-10T21:14:52.407Z,17.88
2023-05-10T21:17:39.220Z,17.85
2023-05-10T21:20:25.993Z,17.85
2023-05-10T21:23:12.790Z,17.83
2023-05-10T21:25:59.468Z,17.80
2023-05-10T21:28:46.221Z,17.78
2023-05-10T21:31:33.009Z,17.77
2023-05-10T21:34:20.619Z,17.76
2023-05-10T21:37:07.348Z,17.75
2023-05-10T21:39:54.193Z,17.74
2023-05-10T21:42:40.866Z,17.71
2023-05-10T21:45:31.639Z,17.71
2023-05-10T21:48:18.368Z,17.69
2023-05-10T21:51:05.073Z,17.68
2023-05-10T21:53:53.575Z,17.66
2023-05-10T21:56:40.789Z,17.65
2023-05-10T21:59:27.514Z,17.63
2023-05-10T22:02:14.236Z,17.62
2023-05-10T22:05:01.410Z,17.60
2023-05-10T22:07:48.164Z,17.57
2023-05-10T22:10:34.932Z,17.58
2023-05-10T22:13:21.659Z,17.55
2023-05-10T22:16:08.340Z,17.54
2023-05-10T22:18:55.142Z,17.52
2023-05-10T22:21:41.846Z,17.50
2023-05-10T22:24:28.570Z,17.49
2023-05-10T22:27:15.263Z,17.49
2023-05-10T22:30:02.147Z,17.46
2023-05-10T22:32:48.990Z,17.46
2023-05-10T22:35:35.908Z,17.44
2023-05-10T22:38:22.669Z,17.42
2023-05-10T22:41:09.344Z,17.41
2023-05-10T22:43:55.995Z,17.39
2023-05-10T22:46:42.759Z,17.38
2023-05-10T22:49:29.651Z,17.38
2023-05-10T22:52:16.391Z,17.36
2023-05-10T22:55:03.203Z,17.34
2023-05-10T22:57:49.888Z,17.33
2023-05-10T23:00:36.656Z,17.32
2023-05-10T23:03:23.387Z,17.29
2023-05-10T23:06:10.159Z,17.27
2023-05-10T23:08:56.945Z,17.26
2023-05-10T23:11:43.628Z,17.26
2023-05-10T23:14:30.432Z,17.24
2023-05-10T23:17:17.081Z,17.22
2023-05-10T23:20:03.981Z,17.22
2023-05-10T23:22:50.702Z,17.20
2023-05-10T23:25:37.856Z,17.20
2023-05-10T23:28:24.556Z,17.18
2023-05-10T23:31:11.254Z,17.17
2023-05-10T23:33:57.981Z,17.15
2023-05-10T23:36:44.696Z,17.12
2023-05-10T23:39:31.887Z,17.11
2023-05-10T23:42:18.605Z,17.11
2023-05-10T23:45:05.461Z,17.09
2023-05-10T23:47:52.739Z,17.10
2023-05-10T23:50:43.998Z,17.08
2023-05-10T23:53:30.725Z,17.06
2023-05-10T23:56:17.572Z,17.03
2023-05-10T23:59:05.917Z,17.02
